sensor_id;sensor_type;location;lat;lon;timestamp;P1;durP1;ratioP1;P2;durP2;ratioP2
56043;SDS011;41912;51.022;3.664;2023-01-29T00:01:14;54.42;;;28.75;;
56043;SDS011;41912;51.022;3.664;2023-01-29T00:03:40;53.17;;;27.73;;
56043;SDS011;41912;51.022;3.664;2023-01-29T00:06:06;56.80;;;29.42;;
56043;SDS011;41912;51.022;3.664;2023-01-29T00:08:36;58.17;;;28.70;;
56043;SDS011;41912;51.022;3.664;2023-01-29T00:11:03;50.40;;;27.52;;
56043;SDS011;41912;51.022;3.664;2023-01-29T00:13:30;51.50;;;27.58;;
56043;SDS011;41912;51.022;3.664;2023-01-29T00:15:56;52.47;;;29.55;;
56043;SDS011;41912;51.022;3.664;2023-01-29T00:18:23;58.65;;;30.02;;
56043;SDS011;41912;51.022;3.664;2023-01-29T00:20:49;52.15;;;28.23;;
56043;SDS011;41912;51.022;3.664;2023-01-29T00:23:15;52.83;;;28.13;;
56043;SDS011;41912;51.022;3.664;2023-01-29T00:25:41;53.53;;;28.73;;
56043;SDS011;41912;51.022;3.664;2023-01-29T00:28:07;52.80;;;27.95;;
56043;SDS011;41912;51.022;3.664;2023-01-29T00:30:34;59.30;;;30.25;;
56043;SDS011;41912;51.022;3.664;2023-01-29T00:33:00;56.47;;;29.52;;
56043;SDS011;41912;51.022;3.664;2023-01-29T00:35:26;55.35;;;28.40;;
56043;SDS011;41912;51.022;3.664;2023-01-29T00:37:53;57.78;;;29.48;;
56043;SDS011;41912;51.022;3.664;2023-01-29T00:40:19;53.15;;;28.55;;
56043;SDS011;41912;51.022;3.664;2023-01-29T00:42:45;54.78;;;28.85;;
56043;SDS011;41912;51.022;3.664;2023-01-29T00:45:29;55.40;;;28.60;;
56043;SDS011;41912;51.022;3.664;2023-01-29T00:47:55;60.20;;;31.55;;
56043;SDS011;41912;51.022;3.664;2023-01-29T00:50:20;59.90;;;32.55;;
56043;SDS011;41912;51.022;3.664;2023-01-29T00:52:46;55.97;;;29.50;;
56043;SDS011;41912;51.022;3.664;2023-01-29T00:55:13;58.47;;;30.23;;
56043;SDS011;41912;51.022;3.664;2023-01-29T00:57:39;59.83;;;31.02;;
56043;SDS011;41912;51.022;3.664;2023-01-29T01:00:06;61.90;;;30.77;;
56043;SDS011;41912;51.022;3.664;2023-01-29T01:02:33;61.42;;;31.73;;
56043;SDS011;41912;51.022;3.664;2023-01-29T01:05:18;53.67;;;28.98;;
56043;SDS011;41912;51.022;3.664;2023-01-29T01:07:47;52.78;;;28.80;;
56043;SDS011;41912;51.022;3.664;2023-01-29T01:10:18;59.65;;;30.63;;
56043;SDS011;41912;51.022;3.664;2023-01-29T01:12:56;55.83;;;29.25;;
56043;SDS011;41912;51.022;3.664;2023-01-29T01:15:26;56.17;;;29.20;;
56043;SDS011;41912;51.022;3.664;2023-01-29T01:17:55;61.50;;;31.02;;
56043;SDS011;41912;51.022;3.664;2023-01-29T01:20:22;57.28;;;29.75;;
56043;SDS011;41912;51.022;3.664;2023-01-29T01:22:49;54.70;;;31.02;;
56043;SDS011;41912;51.022;3.664;2023-01-29T01:25:15;57.15;;;31.20;;
56043;SDS011;41912;51.022;3.664;2023-01-29T01:27:42;53.90;;;28.67;;
56043;SDS011;41912;51.022;3.664;2023-01-29T01:30:10;54.30;;;29.85;;
56043;SDS011;41912;51.022;3.664;2023-01-29T01:32:38;58.03;;;29.63;;
56043;SDS011;41912;51.022;3.664;2023-01-29T01:35:04;55.72;;;28.63;;
56043;SDS011;41912;51.022;3.664;2023-01-29T01:37:30;57.95;;;29.52;;
56043;SDS011;41912;51.022;3.664;2023-01-29T01:39:56;55.30;;;30.15;;
56043;SDS011;41912;51.022;3.664;2023-01-29T01:42:28;55.08;;;30.30;;
56043;SDS011;41912;51.022;3.664;2023-01-29T01:49:53;58.95;;;29.60;;
56043;SDS011;41912;51.022;3.664;2023-01-29T01:52:21;56.88;;;29.27;;
56043;SDS011;41912;51.022;3.664;2023-01-29T01:54:47;62.58;;;30.85;;
56043;SDS011;41912;51.022;3.664;2023-01-29T01:57:15;56.50;;;29.17;;
56043;SDS011;41912;51.022;3.664;2023-01-29T01:59:49;55.70;;;29.05;;
56043;SDS011;41912;51.022;3.664;2023-01-29T02:02:21;54.83;;;28.65;;
56043;SDS011;41912;51.022;3.664;2023-01-29T02:05:07;58.72;;;27.80;;
56043;SDS011;41912;51.022;3.664;2023-01-29T02:07:52;57.20;;;28.67;;
56043;SDS011;41912;51.022;3.664;2023-01-29T02:10:40;55.88;;;28.48;;
56043;SDS011;41912;51.022;3.664;2023-01-29T02:13:08;56.85;;;27.70;;
56043;SDS011;41912;51.022;3.664;2023-01-29T02:15:34;55.15;;;28.02;;
56043;SDS011;41912;51.022;3.664;2023-01-29T02:18:00;58.08;;;28.30;;
56043;SDS011;41912;51.022;3.664;2023-01-29T02:20:27;53.35;;;27.25;;
56043;SDS011;41912;51.022;3.664;2023-01-29T02:31:15;54.45;;;27.92;;
56043;SDS011;41912;51.022;3.664;2023-01-29T02:36:49;60.92;;;29.40;;
56043;SDS011;41912;51.022;3.664;2023-01-29T02:42:21;51.42;;;26.85;;
56043;SDS011;41912;51.022;3.664;2023-01-29T02:45:07;54.75;;;27.10;;
56043;SDS011;41912;51.022;3.664;2023-01-29T02:47:46;54.22;;;27.30;;
56043;SDS011;41912;51.022;3.664;2023-01-29T02:50:20;55.53;;;28.20;;
56043;SDS011;41912;51.022;3.664;2023-01-29T02:53:00;56.90;;;27.63;;
56043;SDS011;41912;51.022;3.664;2023-01-29T02:56:21;58.70;;;29.02;;
56043;SDS011;41912;51.022;3.664;2023-01-29T03:04:06;56.72;;;26.65;;
56043;SDS011;41912;51.022;3.664;2023-01-29T03:06:42;51.00;;;27.02;;
56043;SDS011;41912;51.022;3.664;2023-01-29T03:09:15;54.05;;;26.55;;
56043;SDS011;41912;51.022;3.664;2023-01-29T03:11:48;53.92;;;26.75;;
56043;SDS011;41912;51.022;3.664;2023-01-29T03:14:22;60.97;;;27.77;;
56043;SDS011;41912;51.022;3.664;2023-01-29T03:17:16;57.78;;;27.25;;
56043;SDS011;41912;51.022;3.664;2023-01-29T03:19:44;57.45;;;28.50;;
56043;SDS011;41912;51.022;3.664;2023-01-29T03:22:11;61.90;;;28.65;;
56043;SDS011;41912;51.022;3.664;2023-01-29T03:24:42;61.60;;;28.35;;
56043;SDS011;41912;51.022;3.664;2023-01-29T03:27:38;53.45;;;28.02;;
56043;SDS011;41912;51.022;3.664;2023-01-29T03:30:29;53.97;;;27.33;;
56043;SDS011;41912;51.022;3.664;2023-01-29T03:33:17;54.85;;;27.40;;
56043;SDS011;41912;51.022;3.664;2023-01-29T03:36:09;57.08;;;28.70;;
56043;SDS011;41912;51.022;3.664;2023-01-29T03:38:35;51.70;;;26.45;;
56043;SDS011;41912;51.022;3.664;2023-01-29T03:41:05;59.15;;;28.67;;
56043;SDS011;41912;51.022;3.664;2023-01-29T03:46:15;54.35;;;27.33;;
56043;SDS011;41912;51.022;3.664;2023-01-29T03:49:20;54.75;;;28.70;;
56043;SDS011;41912;51.022;3.664;2023-01-29T03:51:52;53.65;;;26.15;;
56043;SDS011;41912;51.022;3.664;2023-01-29T03:54:39;54.17;;;27.50;;
56043;SDS011;41912;51.022;3.664;2023-01-29T03:57:13;51.40;;;27.65;;
56043;SDS011;41912;51.022;3.664;2023-01-29T04:00:05;57.95;;;28.85;;
56043;SDS011;41912;51.022;3.664;2023-01-29T04:02:56;56.72;;;27.23;;
56043;SDS011;41912;51.022;3.664;2023-01-29T04:05:28;55.42;;;28.13;;
56043;SDS011;41912;51.022;3.664;2023-01-29T04:08:00;55.75;;;27.77;;
56043;SDS011;41912;51.022;3.664;2023-01-29T04:10:32;56.53;;;28.20;;
56043;SDS011;41912;51.022;3.664;2023-01-29T04:13:04;55.83;;;28.33;;
56043;SDS011;41912;51.022;3.664;2023-01-29T04:15:33;56.13;;;28.13;;
56043;SDS011;41912;51.022;3.664;2023-01-29T04:18:10;56.42;;;28.95;;
56043;SDS011;41912;51.022;3.664;2023-01-29T04:20:35;60.72;;;29.23;;
56043;SDS011;41912;51.022;3.664;2023-01-29T04:23:04;57.75;;;28.50;;
56043;SDS011;41912;51.022;3.664;2023-01-29T04:25:34;56.85;;;29.88;;
56043;SDS011;41912;51.022;3.664;2023-01-29T04:28:15;58.67;;;29.20;;
56043;SDS011;41912;51.022;3.664;2023-01-29T04:38:46;56.55;;;28.58;;
56043;SDS011;41912;51.022;3.664;2023-01-29T04:46:46;51.47;;;26.95;;
56043;SDS011;41912;51.022;3.664;2023-01-29T04:49:31;59.33;;;29.17;;
56043;SDS011;41912;51.022;3.664;2023-01-29T04:52:08;58.78;;;28.52;;
56043;SDS011;41912;51.022;3.664;2023-01-29T04:54:50;58.83;;;29.30;;
56043;SDS011;41912;51.022;3.664;2023-01-29T04:57:33;63.13;;;30.67;;
56043;SDS011;41912;51.022;3.664;2023-01-29T05:02:45;67.45;;;31.15;;
56043;SDS011;41912;51.022;3.664;2023-01-29T05:05:12;64.65;;;29.02;;
56043;SDS011;41912;51.022;3.664;2023-01-29T05:07:41;68.28;;;30.38;;
56043;SDS011;41912;51.022;3.664;2023-01-29T05:10:09;62.97;;;29.65;;
56043;SDS011;41912;51.022;3.664;2023-01-29T05:12:38;58.75;;;30.48;;
56043;SDS011;41912;51.022;3.664;2023-01-29T05:15:07;60.15;;;30.65;;
56043;SDS011;41912;51.022;3.664;2023-01-29T05:17:37;58.30;;;29.15;;
56043;SDS011;41912;51.022;3.664;2023-01-29T05:20:02;58.08;;;28.48;;
56043;SDS011;41912;51.022;3.664;2023-01-29T05:22:28;58.28;;;29.60;;
56043;SDS011;41912;51.022;3.664;2023-01-29T05:24:55;59.47;;;29.80;;
56043;SDS011;41912;51.022;3.664;2023-01-29T05:27:26;59.42;;;30.42;;
56043;SDS011;41912;51.022;3.664;2023-01-29T05:30:14;60.00;;;30.35;;
56043;SDS011;41912;51.022;3.664;2023-01-29T05:32:40;63.22;;;31.73;;
56043;SDS011;41912;51.022;3.664;2023-01-29T05:35:06;67.03;;;31.73;;
56043;SDS011;41912;51.022;3.664;2023-01-29T05:37:32;56.42;;;28.30;;
56043;SDS011;41912;51.022;3.664;2023-01-29T05:39:57;63.15;;;31.13;;
56043;SDS011;41912;51.022;3.664;2023-01-29T05:42:23;62.63;;;29.52;;
56043;SDS011;41912;51.022;3.664;2023-01-29T05:44:48;61.53;;;30.33;;
56043;SDS011;41912;51.022;3.664;2023-01-29T05:47:17;61.85;;;30.13;;
56043;SDS011;41912;51.022;3.664;2023-01-29T05:49:46;65.40;;;30.65;;
56043;SDS011;41912;51.022;3.664;2023-01-29T05:52:12;64.65;;;30.15;;
56043;SDS011;41912;51.022;3.664;2023-01-29T05:54:37;60.13;;;29.48;;
56043;SDS011;41912;51.022;3.664;2023-01-29T05:57:03;62.92;;;30.60;;
56043;SDS011;41912;51.022;3.664;2023-01-29T05:59:28;57.58;;;29.52;;
56043;SDS011;41912;51.022;3.664;2023-01-29T06:01:55;63.53;;;30.63;;
56043;SDS011;41912;51.022;3.664;2023-01-29T06:04:21;64.03;;;31.27;;
56043;SDS011;41912;51.022;3.664;2023-01-29T06:06:47;60.10;;;30.50;;
56043;SDS011;41912;51.022;3.664;2023-01-29T06:09:12;58.40;;;29.80;;
56043;SDS011;41912;51.022;3.664;2023-01-29T06:11:38;59.75;;;30.15;;
56043;SDS011;41912;51.022;3.664;2023-01-29T06:14:04;58.53;;;30.52;;
56043;SDS011;41912;51.022;3.664;2023-01-29T06:16:30;57.22;;;28.33;;
56043;SDS011;41912;51.022;3.664;2023-01-29T06:18:55;54.67;;;28.73;;
56043;SDS011;41912;51.022;3.664;2023-01-29T06:21:21;61.72;;;28.95;;
56043;SDS011;41912;51.022;3.664;2023-01-29T06:23:47;58.70;;;29.73;;
56043;SDS011;41912;51.022;3.664;2023-01-29T06:26:13;55.40;;;28.70;;
56043;SDS011;41912;51.022;3.664;2023-01-29T06:28:39;58.10;;;28.08;;
56043;SDS011;41912;51.022;3.664;2023-01-29T06:31:05;57.28;;;27.88;;
56043;SDS011;41912;51.022;3.664;2023-01-29T06:33:32;54.00;;;28.65;;
56043;SDS011;41912;51.022;3.664;2023-01-29T06:35:59;56.42;;;30.10;;
56043;SDS011;41912;51.022;3.664;2023-01-29T06:38:26;60.88;;;30.33;;
56043;SDS011;41912;51.022;3.664;2023-01-29T06:40:53;55.28;;;29.00;;
56043;SDS011;41912;51.022;3.664;2023-01-29T06:43:19;60.40;;;29.33;;
56043;SDS011;41912;51.022;3.664;2023-01-29T06:45:55;54.72;;;25.52;;
56043;SDS011;41912;51.022;3.664;2023-01-29T06:48:22;50.63;;;26.38;;
56043;SDS011;41912;51.022;3.664;2023-01-29T06:50:48;56.38;;;27.85;;
56043;SDS011;41912;51.022;3.664;2023-01-29T06:53:14;52.40;;;27.38;;
56043;SDS011;41912;51.022;3.664;2023-01-29T06:55:40;52.70;;;27.55;;
56043;SDS011;41912;51.022;3.664;2023-01-29T06:58:07;50.15;;;27.10;;
56043;SDS011;41912;51.022;3.664;2023-01-29T07:00:34;50.85;;;26.48;;
56043;SDS011;41912;51.022;3.664;2023-01-29T07:03:00;53.10;;;26.80;;
56043;SDS011;41912;51.022;3.664;2023-01-29T07:05:26;55.30;;;27.58;;
56043;SDS011;41912;51.022;3.664;2023-01-29T07:07:52;50.53;;;26.48;;
56043;SDS011;41912;51.022;3.664;2023-01-29T07:10:18;55.55;;;27.98;;
56043;SDS011;41912;51.022;3.664;2023-01-29T07:12:43;48.47;;;25.65;;
56043;SDS011;41912;51.022;3.664;2023-01-29T07:15:09;52.88;;;27.55;;
56043;SDS011;41912;51.022;3.664;2023-01-29T07:17:36;50.47;;;26.52;;
56043;SDS011;41912;51.022;3.664;2023-01-29T07:20:03;53.30;;;27.65;;
56043;SDS011;41912;51.022;3.664;2023-01-29T07:22:30;51.72;;;26.70;;
56043;SDS011;41912;51.022;3.664;2023-01-29T07:24:56;52.70;;;28.17;;
56043;SDS011;41912;51.022;3.664;2023-01-29T07:27:22;56.20;;;28.77;;
56043;SDS011;41912;51.022;3.664;2023-01-29T07:29:47;52.30;;;27.55;;
56043;SDS011;41912;51.022;3.664;2023-01-29T07:32:13;51.47;;;26.92;;
56043;SDS011;41912;51.022;3.664;2023-01-29T07:34:39;52.78;;;27.45;;
56043;SDS011;41912;51.022;3.664;2023-01-29T07:37:04;52.25;;;27.65;;
56043;SDS011;41912;51.022;3.664;2023-01-29T07:39:30;51.88;;;27.58;;
56043;SDS011;41912;51.022;3.664;2023-01-29T07:41:56;56.25;;;30.50;;
56043;SDS011;41912;51.022;3.664;2023-01-29T07:44:22;58.50;;;28.33;;
56043;SDS011;41912;51.022;3.664;2023-01-29T07:46:48;55.80;;;28.05;;
56043;SDS011;41912;51.022;3.664;2023-01-29T07:49:13;54.95;;;29.73;;
56043;SDS011;41912;51.022;3.664;2023-01-29T07:51:39;59.22;;;28.90;;
56043;SDS011;41912;51.022;3.664;2023-01-29T07:54:05;60.63;;;30.77;;
56043;SDS011;41912;51.022;3.664;2023-01-29T07:56:31;67.15;;;32.67;;
56043;SDS011;41912;51.022;3.664;2023-01-29T07:58:56;53.28;;;28.83;;
56043;SDS011;41912;51.022;3.664;2023-01-29T08:01:22;63.28;;;31.08;;
56043;SDS011;41912;51.022;3.664;2023-01-29T08:03:48;64.22;;;30.50;;
56043;SDS011;41912;51.022;3.664;2023-01-29T08:06:13;54.38;;;28.17;;
56043;SDS011;41912;51.022;3.664;2023-01-29T08:08:39;55.35;;;28.30;;
56043;SDS011;41912;51.022;3.664;2023-01-29T08:11:05;58.28;;;28.33;;
56043;SDS011;41912;51.022;3.664;2023-01-29T08:13:31;59.33;;;31.45;;
56043;SDS011;41912;51.022;3.664;2023-01-29T08:16:00;58.97;;;31.10;;
56043;SDS011;41912;51.022;3.664;2023-01-29T08:18:27;57.55;;;29.38;;
56043;SDS011;41912;51.022;3.664;2023-01-29T08:20:58;59.63;;;27.90;;
56043;SDS011;41912;51.022;3.664;2023-01-29T08:23:27;52.35;;;27.67;;
56043;SDS011;41912;51.022;3.664;2023-01-29T08:25:52;56.65;;;27.67;;
56043;SDS011;41912;51.022;3.664;2023-01-29T08:28:18;57.15;;;27.83;;
56043;SDS011;41912;51.022;3.664;2023-01-29T08:30:44;60.25;;;30.13;;
56043;SDS011;41912;51.022;3.664;2023-01-29T08:33:10;52.47;;;26.70;;
56043;SDS011;41912;51.022;3.664;2023-01-29T08:35:36;54.20;;;26.92;;
56043;SDS011;41912;51.022;3.664;2023-01-29T08:38:03;51.70;;;25.67;;
56043;SDS011;41912;51.022;3.664;2023-01-29T08:40:30;53.67;;;26.75;;
56043;SDS011;41912;51.022;3.664;2023-01-29T08:42:57;49.40;;;25.13;;
56043;SDS011;41912;51.022;3.664;2023-01-29T08:45:24;56.55;;;27.35;;
56043;SDS011;41912;51.022;3.664;2023-01-29T08:47:49;53.75;;;26.92;;
56043;SDS011;41912;51.022;3.664;2023-01-29T08:50:15;49.20;;;26.80;;
56043;SDS011;41912;51.022;3.664;2023-01-29T08:52:42;53.47;;;27.08;;
56043;SDS011;41912;51.022;3.664;2023-01-29T08:55:08;49.13;;;27.00;;
56043;SDS011;41912;51.022;3.664;2023-01-29T08:57:34;56.00;;;26.05;;
56043;SDS011;41912;51.022;3.664;2023-01-29T09:00:00;53.78;;;25.33;;
56043;SDS011;41912;51.022;3.664;2023-01-29T09:02:26;52.50;;;26.15;;
56043;SDS011;41912;51.022;3.664;2023-01-29T09:04:51;51.00;;;25.00;;
56043;SDS011;41912;51.022;3.664;2023-01-29T09:07:17;47.13;;;25.52;;
56043;SDS011;41912;51.022;3.664;2023-01-29T09:09:45;47.72;;;24.70;;
56043;SDS011;41912;51.022;3.664;2023-01-29T09:12:11;45.25;;;25.52;;
56043;SDS011;41912;51.022;3.664;2023-01-29T09:14:37;58.10;;;26.05;;
56043;SDS011;41912;51.022;3.664;2023-01-29T09:19:31;51.25;;;25.85;;
56043;SDS011;41912;51.022;3.664;2023-01-29T09:21:56;49.53;;;25.75;;
56043;SDS011;41912;51.022;3.664;2023-01-29T09:24:22;47.58;;;24.98;;
56043;SDS011;41912;51.022;3.664;2023-01-29T09:26:48;47.92;;;24.77;;
56043;SDS011;41912;51.022;3.664;2023-01-29T09:29:13;47.17;;;24.02;;
56043;SDS011;41912;51.022;3.664;2023-01-29T09:31:39;50.88;;;25.58;;
56043;SDS011;41912;51.022;3.664;2023-01-29T09:34:04;44.60;;;24.40;;
56043;SDS011;41912;51.022;3.664;2023-01-29T09:36:30;46.70;;;23.60;;
56043;SDS011;41912;51.022;3.664;2023-01-29T09:38:56;46.40;;;22.40;;
56043;SDS011;41912;51.022;3.664;2023-01-29T09:44:18;48.33;;;24.45;;
56043;SDS011;41912;51.022;3.664;2023-01-29T09:47:03;48.15;;;22.95;;
56043;SDS011;41912;51.022;3.664;2023-01-29T09:49:35;45.38;;;24.13;;
56043;SDS011;41912;51.022;3.664;2023-01-29T09:52:16;45.65;;;23.63;;
56043;SDS011;41912;51.022;3.664;2023-01-29T09:57:49;44.53;;;24.35;;
56043;SDS011;41912;51.022;3.664;2023-01-29T10:05:42;45.72;;;24.10;;
56043;SDS011;41912;51.022;3.664;2023-01-29T10:25:18;47.70;;;24.63;;
56043;SDS011;41912;51.022;3.664;2023-01-29T10:27:49;44.08;;;24.20;;
56043;SDS011;41912;51.022;3.664;2023-01-29T10:30:20;41.13;;;22.85;;
56043;SDS011;41912;51.022;3.664;2023-01-29T10:32:51;44.05;;;23.80;;
56043;SDS011;41912;51.022;3.664;2023-01-29T10:35:22;42.50;;;23.33;;
56043;SDS011;41912;51.022;3.664;2023-01-29T10:37:51;45.88;;;24.80;;
56043;SDS011;41912;51.022;3.664;2023-01-29T10:43:07;43.15;;;23.55;;
56043;SDS011;41912;51.022;3.664;2023-01-29T10:51:14;38.45;;;21.92;;
56043;SDS011;41912;51.022;3.664;2023-01-29T11:02:00;40.45;;;21.95;;
56043;SDS011;41912;51.022;3.664;2023-01-29T11:04:27;41.72;;;22.02;;
56043;SDS011;41912;51.022;3.664;2023-01-29T11:06:55;41.70;;;21.85;;
56043;SDS011;41912;51.022;3.664;2023-01-29T11:17:20;37.20;;;19.50;;
56043;SDS011;41912;51.022;3.664;2023-01-29T11:19:48;40.92;;;20.92;;
56043;SDS011;41912;51.022;3.664;2023-01-29T11:22:19;40.83;;;18.98;;
56043;SDS011;41912;51.022;3.664;2023-01-29T11:25:06;36.88;;;19.80;;
56043;SDS011;41912;51.022;3.664;2023-01-29T11:27:38;34.42;;;18.73;;
56043;SDS011;41912;51.022;3.664;2023-01-29T11:30:23;40.63;;;19.70;;
56043;SDS011;41912;51.022;3.664;2023-01-29T11:32:59;34.03;;;18.63;;
56043;SDS011;41912;51.022;3.664;2023-01-29T11:35:43;40.63;;;20.30;;
56043;SDS011;41912;51.022;3.664;2023-01-29T11:40:41;32.35;;;18.80;;
56043;SDS011;41912;51.022;3.664;2023-01-29T11:43:12;31.50;;;18.80;;
56043;SDS011;41912;51.022;3.664;2023-01-29T11:45:46;35.05;;;18.00;;
56043;SDS011;41912;51.022;3.664;2023-01-29T11:48:15;34.90;;;19.52;;
56043;SDS011;41912;51.022;3.664;2023-01-29T11:50:43;34.72;;;19.10;;
56043;SDS011;41912;51.022;3.664;2023-01-29T11:53:23;43.75;;;20.05;;
56043;SDS011;41912;51.022;3.664;2023-01-29T11:56:06;32.00;;;16.77;;
56043;SDS011;41912;51.022;3.664;2023-01-29T11:58:43;31.30;;;16.10;;
56043;SDS011;41912;51.022;3.664;2023-01-29T12:01:10;31.90;;;17.55;;
56043;SDS011;41912;51.022;3.664;2023-01-29T12:03:40;34.22;;;17.75;;
56043;SDS011;41912;51.022;3.664;2023-01-29T12:06:32;31.90;;;17.20;;
56043;SDS011;41912;51.022;3.664;2023-01-29T12:09:01;35.08;;;17.55;;
56043;SDS011;41912;51.022;3.664;2023-01-29T12:11:33;31.25;;;17.27;;
56043;SDS011;41912;51.022;3.664;2023-01-29T12:14:00;34.28;;;18.35;;
56043;SDS011;41912;51.022;3.664;2023-01-29T12:19:24;31.98;;;18.70;;
56043;SDS011;41912;51.022;3.664;2023-01-29T12:22:05;32.08;;;17.60;;
56043;SDS011;41912;51.022;3.664;2023-01-29T12:30:06;30.23;;;16.70;;
56043;SDS011;41912;51.022;3.664;2023-01-29T12:32:57;30.77;;;17.50;;
56043;SDS011;41912;51.022;3.664;2023-01-29T12:35:49;33.58;;;17.85;;
56043;SDS011;41912;51.022;3.664;2023-01-29T12:38:25;35.25;;;16.98;;
56043;SDS011;41912;51.022;3.664;2023-01-29T12:40:59;37.17;;;18.33;;
56043;SDS011;41912;51.022;3.664;2023-01-29T12:43:30;31.38;;;17.67;;
56043;SDS011;41912;51.022;3.664;2023-01-29T12:46:21;31.80;;;17.55;;
56043;SDS011;41912;51.022;3.664;2023-01-29T12:48:54;35.28;;;18.35;;
56043;SDS011;41912;51.022;3.664;2023-01-29T12:51:24;33.15;;;17.88;;
56043;SDS011;41912;51.022;3.664;2023-01-29T12:56:28;39.13;;;18.85;;
56043;SDS011;41912;51.022;3.664;2023-01-29T12:59:02;38.72;;;18.50;;
56043;SDS011;41912;51.022;3.664;2023-01-29T13:01:42;32.95;;;18.48;;
56043;SDS011;41912;51.022;3.664;2023-01-29T13:09:44;34.03;;;18.58;;
56043;SDS011;41912;51.022;3.664;2023-01-29T13:12:17;37.78;;;20.30;;
56043;SDS011;41912;51.022;3.664;2023-01-29T13:14:47;40.65;;;19.35;;
56043;SDS011;41912;51.022;3.664;2023-01-29T13:17:36;40.00;;;19.67;;
56043;SDS011;41912;51.022;3.664;2023-01-29T13:20:25;40.20;;;19.63;;
56043;SDS011;41912;51.022;3.664;2023-01-29T13:22:55;36.88;;;19.55;;
56043;SDS011;41912;51.022;3.664;2023-01-29T13:25:28;38.15;;;18.63;;
56043;SDS011;41912;51.022;3.664;2023-01-29T13:30:25;34.38;;;18.42;;
56043;SDS011;41912;51.022;3.664;2023-01-29T13:32:56;34.95;;;19.15;;
56043;SDS011;41912;51.022;3.664;2023-01-29T13:35:33;34.03;;;18.20;;
56043;SDS011;41912;51.022;3.664;2023-01-29T13:38:19;35.33;;;18.92;;
56043;SDS011;41912;51.022;3.664;2023-01-29T13:40:50;33.72;;;18.83;;
56043;SDS011;41912;51.022;3.664;2023-01-29T13:43:20;36.28;;;19.05;;
56043;SDS011;41912;51.022;3.664;2023-01-29T13:48:26;40.80;;;19.25;;
56043;SDS011;41912;51.022;3.664;2023-01-29T13:50:56;35.35;;;19.42;;
56043;SDS011;41912;51.022;3.664;2023-01-29T13:53:26;43.65;;;19.85;;
56043;SDS011;41912;51.022;3.664;2023-01-29T13:56:08;36.20;;;18.85;;
56043;SDS011;41912;51.022;3.664;2023-01-29T13:58:57;40.45;;;19.30;;
56043;SDS011;41912;51.022;3.664;2023-01-29T14:03:58;40.50;;;18.80;;
56043;SDS011;41912;51.022;3.664;2023-01-29T14:06:53;37.08;;;19.85;;
56043;SDS011;41912;51.022;3.664;2023-01-29T14:12:01;43.55;;;20.85;;
56043;SDS011;41912;51.022;3.664;2023-01-29T14:14:49;32.65;;;18.17;;
56043;SDS011;41912;51.022;3.664;2023-01-29T14:17:35;35.05;;;19.00;;
56043;SDS011;41912;51.022;3.664;2023-01-29T14:20:15;33.40;;;19.00;;
56043;SDS011;41912;51.022;3.664;2023-01-29T14:22:44;34.70;;;17.85;;
56043;SDS011;41912;51.022;3.664;2023-01-29T14:25:39;34.15;;;19.13;;
56043;SDS011;41912;51.022;3.664;2023-01-29T14:28:13;38.55;;;19.70;;
56043;SDS011;41912;51.022;3.664;2023-01-29T14:30:44;34.88;;;19.08;;
56043;SDS011;41912;51.022;3.664;2023-01-29T14:33:22;35.45;;;19.27;;
56043;SDS011;41912;51.022;3.664;2023-01-29T14:35:49;34.72;;;20.23;;
56043;SDS011;41912;51.022;3.664;2023-01-29T14:38:16;39.42;;;18.45;;
56043;SDS011;41912;51.022;3.664;2023-01-29T14:40:42;36.47;;;19.55;;
56043;SDS011;41912;51.022;3.664;2023-01-29T14:43:15;34.88;;;17.83;;
56043;SDS011;41912;51.022;3.664;2023-01-29T14:45:45;35.22;;;19.63;;
56043;SDS011;41912;51.022;3.664;2023-01-29T14:51:10;38.78;;;19.95;;
56043;SDS011;41912;51.022;3.664;2023-01-29T14:59:10;33.22;;;17.83;;
56043;SDS011;41912;51.022;3.664;2023-01-29T15:02:14;35.58;;;18.58;;
56043;SDS011;41912;51.022;3.664;2023-01-29T15:04:47;31.25;;;17.85;;
56043;SDS011;41912;51.022;3.664;2023-01-29T15:12:35;34.40;;;18.87;;
56043;SDS011;41912;51.022;3.664;2023-01-29T15:15:24;34.40;;;18.08;;
56043;SDS011;41912;51.022;3.664;2023-01-29T15:18:08;29.17;;;16.80;;
56043;SDS011;41912;51.022;3.664;2023-01-29T15:20:41;34.65;;;17.83;;
56043;SDS011;41912;51.022;3.664;2023-01-29T15:23:30;35.80;;;19.20;;
56043;SDS011;41912;51.022;3.664;2023-01-29T15:26:01;33.40;;;18.65;;
56043;SDS011;41912;51.022;3.664;2023-01-29T15:28:30;35.47;;;18.75;;
56043;SDS011;41912;51.022;3.664;2023-01-29T15:30:58;32.10;;;17.48;;
56043;SDS011;41912;51.022;3.664;2023-01-29T15:33:28;32.45;;;17.88;;
56043;SDS011;41912;51.022;3.664;2023-01-29T15:36:01;32.35;;;17.42;;
56043;SDS011;41912;51.022;3.664;2023-01-29T15:38:28;31.73;;;18.52;;
56043;SDS011;41912;51.022;3.664;2023-01-29T15:43:27;33.03;;;19.23;;
56043;SDS011;41912;51.022;3.664;2023-01-29T15:45:55;34.53;;;18.63;;
56043;SDS011;41912;51.022;3.664;2023-01-29T15:48:30;33.55;;;19.77;;
56043;SDS011;41912;51.022;3.664;2023-01-29T15:51:00;32.50;;;17.90;;
56043;SDS011;41912;51.022;3.664;2023-01-29T15:53:48;36.97;;;19.00;;
56043;SDS011;41912;51.022;3.664;2023-01-29T15:56:33;36.65;;;20.08;;
56043;SDS011;41912;51.022;3.664;2023-01-29T16:01:28;34.13;;;18.50;;
56043;SDS011;41912;51.022;3.664;2023-01-29T16:03:58;35.60;;;18.50;;
56043;SDS011;41912;51.022;3.664;2023-01-29T16:09:16;35.83;;;19.05;;
56043;SDS011;41912;51.022;3.664;2023-01-29T16:11:45;41.78;;;21.48;;
56043;SDS011;41912;51.022;3.664;2023-01-29T16:14:13;38.47;;;21.98;;
56043;SDS011;41912;51.022;3.664;2023-01-29T16:16:43;39.25;;;20.17;;
56043;SDS011;41912;51.022;3.664;2023-01-29T16:19:23;40.92;;;19.88;;
56043;SDS011;41912;51.022;3.664;2023-01-29T16:21:59;40.80;;;20.77;;
56043;SDS011;41912;51.022;3.664;2023-01-29T16:24:43;37.33;;;19.33;;
56043;SDS011;41912;51.022;3.664;2023-01-29T16:27:12;33.67;;;19.67;;
56043;SDS011;41912;51.022;3.664;2023-01-29T16:29:38;57.50;;;27.25;;
56043;SDS011;41912;51.022;3.664;2023-01-29T16:32:04;40.03;;;21.52;;
56043;SDS011;41912;51.022;3.664;2023-01-29T16:34:35;39.10;;;20.73;;
56043;SDS011;41912;51.022;3.664;2023-01-29T16:39:47;32.60;;;19.48;;
56043;SDS011;41912;51.022;3.664;2023-01-29T16:42:27;37.65;;;20.98;;
56043;SDS011;41912;51.022;3.664;2023-01-29T16:47:51;41.55;;;20.63;;
56043;SDS011;41912;51.022;3.664;2023-01-29T16:50:43;34.58;;;18.75;;
56043;SDS011;41912;51.022;3.664;2023-01-29T16:55:47;34.67;;;19.02;;
56043;SDS011;41912;51.022;3.664;2023-01-29T16:58:15;34.60;;;20.55;;
56043;SDS011;41912;51.022;3.664;2023-01-29T17:00:46;37.22;;;20.30;;
56043;SDS011;41912;51.022;3.664;2023-01-29T17:03:14;37.33;;;20.73;;
56043;SDS011;41912;51.022;3.664;2023-01-29T17:05:42;37.55;;;19.65;;
56043;SDS011;41912;51.022;3.664;2023-01-29T17:08:30;39.60;;;20.30;;
56043;SDS011;41912;51.022;3.664;2023-01-29T17:10:57;33.75;;;19.85;;
56043;SDS011;41912;51.022;3.664;2023-01-29T17:15:57;40.83;;;21.48;;
56043;SDS011;41912;51.022;3.664;2023-01-29T17:18:26;39.78;;;20.20;;
56043;SDS011;41912;51.022;3.664;2023-01-29T17:20:52;35.05;;;19.63;;
56043;SDS011;41912;51.022;3.664;2023-01-29T17:23:18;38.58;;;19.55;;
56043;SDS011;41912;51.022;3.664;2023-01-29T17:25:44;38.38;;;21.02;;